sensor_id;sensor_type;location;lat;lon;timestamp;pressure;altitude;pressure_sealevel;temperature;humidity
62712;BME280;48772;55.586;37.730;2023-07-20T00:01:49;97931.25;;;14.58;100.00
62712;BME280;48772;55.586;37.730;2023-07-20T00:04:16;97897.81;;;14.40;100.00
62712;BME280;48772;55.586;37.730;2023-07-20T00:06:42;97868.19;;;14.12;100.00
62712;BME280;48772;55.586;37.730;2023-07-20T00:09:08;97893.13;;;14.27;100.00
62712;BME280;48772;55.586;37.730;2023-07-20T00:11:38;97836.50;;;14.01;100.00
62712;BME280;48772;55.586;37.730;2023-07-20T00:14:06;97854.59;;;13.99;100.00
62712;BME280;48772;55.586;37.730;2023-07-20T00:16:33;97925.97;;;14.50;100.00
62712;BME280;48772;55.586;37.730;2023-07-20T00:19:00;97841.78;;;13.95;100.00
62712;BME280;48772;55.586;37.730;2023-07-20T00:21:40;97852.03;;;13.91;100.00
62712;BME280;48772;55.586;37.730;2023-07-20T00:24:10;97848.75;;;13.89;100.00
62712;BME280;48772;55.586;37.730;2023-07-20T00:26:39;97903.28;;;14.17;100.00
62712;BME280;48772;55.586;37.730;2023-07-20T00:29:32;97955.59;;;14.42;100.00
62712;BME280;48772;55.586;37.730;2023-07-20T00:32:00;97847.81;;;13.82;100.00
62712;BME280;48772;55.586;37.730;2023-07-20T00:38:54;97933.22;;;14.35;100.00
62712;BME280;48772;55.586;37.730;2023-07-20T00:45:46;97864.34;;;13.86;100.00
62712;BME280;48772;55.586;37.730;2023-07-20T00:48:14;97922.81;;;14.26;100.00
62712;BME280;48772;55.586;37.730;2023-07-20T00:50:42;97852.53;;;13.80;100.00
62712;BME280;48772;55.586;37.730;2023-07-20T00:53:12;97943.69;;;14.30;100.00
62712;BME280;48772;55.586;37.730;2023-07-20T00:55:39;97906.72;;;14.11;100.00
62712;BME280;48772;55.586;37.730;2023-07-20T00:58:16;97890.94;;;14.02;100.00
62712;BME280;48772;55.586;37.730;2023-07-20T01:00:44;97863.06;;;13.82;100.00
62712;BME280;48772;55.586;37.730;2023-07-20T01:03:14;97871.94;;;13.82;100.00
62712;BME280;48772;55.586;37.730;2023-07-20T01:05:54;97941.47;;;14.19;100.00
62712;BME280;48772;55.586;37.730;2023-07-20T01:08:30;97924.47;;;14.12;100.00
62712;BME280;48772;55.586;37.730;2023-07-20T01:11:05;97867.13;;;13.78;100.00
62712;BME280;48772;55.586;37.730;2023-07-20T01:13:33;97918.19;;;14.05;100.00
62712;BME280;48772;55.586;37.730;2023-07-20T01:16:03;97869.53;;;13.73;100.00
62712;BME280;48772;55.586;37.730;2023-07-20T01:18:34;97858.53;;;13.68;100.00
62712;BME280;48772;55.586;37.730;2023-07-20T01:21:11;97907.31;;;13.92;100.00
62712;BME280;48772;55.586;37.730;2023-07-20T01:29:43;97947.97;;;14.10;100.00
62712;BME280;48772;55.586;37.730;2023-07-20T01:32:18;97907.31;;;13.92;100.00
62712;BME280;48772;55.586;37.730;2023-07-20T01:34:47;97939.63;;;14.05;100.00
62712;BME280;48772;55.586;37.730;2023-07-20T01:37:16;97921.16;;;13.96;100.00
62712;BME280;48772;55.586;37.730;2023-07-20T01:39:43;97871.75;;;13.69;100.00
62712;BME280;48772;55.586;37.730;2023-07-20T01:42:09;97922.63;;;13.98;100.00
62712;BME280;48772;55.586;37.730;2023-07-20T01:44:37;97914.69;;;13.90;100.00
62712;BME280;48772;55.586;37.730;2023-07-20T01:47:03;97952.84;;;14.07;100.00
62712;BME280;48772;55.586;37.730;2023-07-20T01:49:30;97921.09;;;13.89;100.00
62712;BME280;48772;55.586;37.730;2023-07-20T01:51:56;97930.03;;;13.96;100.00
62712;BME280;48772;55.586;37.730;2023-07-20T01:54:22;97945.84;;;14.06;100.00
62712;BME280;48772;55.586;37.730;2023-07-20T01:56:48;97949.63;;;14.11;100.00
62712;BME280;48772;55.586;37.730;2023-07-20T01:59:14;97952.13;;;14.13;100.00
62712;BME280;48772;55.586;37.730;2023-07-20T02:01:40;97938.53;;;14.00;100.00
62712;BME280;48772;55.586;37.730;2023-07-20T02:04:06;97916.34;;;13.91;100.00
62712;BME280;48772;55.586;37.730;2023-07-20T02:06:34;97958.22;;;14.21;100.00
62712;BME280;48772;55.586;37.730;2023-07-20T02:09:00;97950.25;;;14.13;100.00
62712;BME280;48772;55.586;37.730;2023-07-20T02:11:26;97899.91;;;13.94;100.00
62712;BME280;48772;55.586;37.730;2023-07-20T02:13:53;97954.97;;;14.26;100.00
62712;BME280;48772;55.586;37.730;2023-07-20T02:16:20;97885.69;;;13.79;100.00
62712;BME280;48772;55.586;37.730;2023-07-20T02:18:47;97917.81;;;13.94;100.00
62712;BME280;48772;55.586;37.730;2023-07-20T02:21:13;97958.88;;;14.23;100.00
62712;BME280;48772;55.586;37.730;2023-07-20T02:23:40;97951.50;;;14.25;100.00
62712;BME280;48772;55.586;37.730;2023-07-20T02:26:07;97918.13;;;13.99;100.00
62712;BME280;48772;55.586;37.730;2023-07-20T02:28:35;97939.81;;;14.18;100.00
62712;BME280;48772;55.586;37.730;2023-07-20T02:31:03;97961.44;;;14.31;100.00
62712;BME280;48772;55.586;37.730;2023-07-20T02:33:30;97966.91;;;14.38;100.00
62712;BME280;48772;55.586;37.730;2023-07-20T02:35:57;97895.03;;;13.83;100.00
62712;BME280;48772;55.586;37.730;2023-07-20T02:38:24;97881.69;;;13.90;100.00
62712;BME280;48772;55.586;37.730;2023-07-20T02:40:51;97912.56;;;14.00;100.00
62712;BME280;48772;55.586;37.730;2023-07-20T02:43:17;97958.41;;;14.34;100.00
62712;BME280;48772;55.586;37.730;2023-07-20T02:45:45;97952.13;;;14.27;100.00
62712;BME280;48772;55.586;37.730;2023-07-20T02:48:13;97922.53;;;14.21;100.00
62712;BME280;48772;55.586;37.730;2023-07-20T02:50:40;97920.41;;;14.16;100.00
62712;BME280;48772;55.586;37.730;2023-07-20T02:53:06;97897.66;;;14.12;100.00
62712;BME280;48772;55.586;37.730;2023-07-20T02:55:33;97970.47;;;14.59;100.00
62712;BME280;48772;55.586;37.730;2023-07-20T02:58:00;97940.16;;;14.44;100.00
62712;BME280;48772;55.586;37.730;2023-07-20T03:00:27;97981.56;;;14.56;100.00
62712;BME280;48772;55.586;37.730;2023-07-20T03:02:53;97935.91;;;14.35;100.00
62712;BME280;48772;55.586;37.730;2023-07-20T03:05:22;97932.69;;;14.40;100.00
62712;BME280;48772;55.586;37.730;2023-07-20T03:07:51;97957.47;;;14.42;100.00
62712;BME280;48772;55.586;37.730;2023-07-20T03:10:18;97973.69;;;14.69;100.00
62712;BME280;48772;55.586;37.730;2023-07-20T03:12:44;97977.00;;;14.71;100.00
62712;BME280;48772;55.586;37.730;2023-07-20T03:15:11;97964.41;;;14.72;100.00
62712;BME280;48772;55.586;37.730;2023-07-20T03:17:37;97907.69;;;14.39;100.00
62712;BME280;48772;55.586;37.730;2023-07-20T03:20:04;97970.88;;;14.77;100.00
62712;BME280;48772;55.586;37.730;2023-07-20T03:22:34;97975.28;;;14.85;100.00
62712;BME280;48772;55.586;37.730;2023-07-20T03:25:01;97933.44;;;14.69;100.00
62712;BME280;48772;55.586;37.730;2023-07-20T03:27:31;97994.66;;;15.01;100.00
62712;BME280;48772;55.586;37.730;2023-07-20T03:29:59;97993.56;;;15.17;100.00
62712;BME280;48772;55.586;37.730;2023-07-20T03:32:26;97956.69;;;15.04;100.00
62712;BME280;48772;55.586;37.730;2023-07-20T03:34:53;97971.75;;;15.05;100.00
62712;BME280;48772;55.586;37.730;2023-07-20T03:37:20;97917.22;;;14.77;100.00
62712;BME280;48772;55.586;37.730;2023-07-20T03:39:47;97914.00;;;14.88;100.00
62712;BME280;48772;55.586;37.730;2023-07-20T03:42:14;97981.09;;;15.30;100.00
62712;BME280;48772;55.586;37.730;2023-07-20T03:44:42;97980.88;;;15.46;100.00
62712;BME280;48772;55.586;37.730;2023-07-20T03:47:10;97963.69;;;15.26;100.00
62712;BME280;48772;55.586;37.730;2023-07-20T03:49:37;97955.69;;;15.33;100.00
62712;BME280;48772;55.586;37.730;2023-07-20T03:52:04;97949.78;;;15.37;100.00
62712;BME280;48772;55.586;37.730;2023-07-20T03:54:30;97971.00;;;15.53;100.00
62712;BME280;48772;55.586;37.730;2023-07-20T03:56:57;97972.66;;;15.54;100.00
62712;BME280;48772;55.586;37.730;2023-07-20T03:59:24;97953.84;;;15.54;100.00
62712;BME280;48772;55.586;37.730;2023-07-20T04:01:51;97912.19;;;15.37;100.00
62712;BME280;48772;55.586;37.730;2023-07-20T04:04:40;97948.88;;;15.85;100.00
62712;BME280;48772;55.586;37.730;2023-07-20T04:07:43;97930.59;;;15.68;100.00
62712;BME280;48772;55.586;37.730;2023-07-20T04:10:10;97953.56;;;16.04;100.00
62712;BME280;48772;55.586;37.730;2023-07-20T04:12:37;97963.22;;;16.26;100.00
62712;BME280;48772;55.586;37.730;2023-07-20T04:15:06;97971.63;;;16.51;100.00
62712;BME280;48772;55.586;37.730;2023-07-20T04:17:33;97910.88;;;15.88;100.00
62712;BME280;48772;55.586;37.730;2023-07-20T04:22:51;97968.88;;;16.44;100.00
62712;BME280;48772;55.586;37.730;2023-07-20T04:25:18;97978.34;;;16.40;100.00
62712;BME280;48772;55.586;37.730;2023-07-20T04:27:47;97944.91;;;16.43;100.00
62712;BME280;48772;55.586;37.730;2023-07-20T04:30:16;97975.75;;;16.54;100.00
62712;BME280;48772;55.586;37.730;2023-07-20T04:32:50;97976.41;;;16.62;100.00
62712;BME280;48772;55.586;37.730;2023-07-20T04:35:26;97977.81;;;16.52;100.00
62712;BME280;48772;55.586;37.730;2023-07-20T04:38:05;97979.91;;;16.56;100.00
62712;BME280;48772;55.586;37.730;2023-07-20T04:40:32;97971.13;;;16.41;100.00
62712;BME280;48772;55.586;37.730;2023-07-20T04:43:02;97917.03;;;16.23;100.00
62712;BME280;48772;55.586;37.730;2023-07-20T04:45:29;97943.84;;;16.44;100.00
62712;BME280;48772;55.586;37.730;2023-07-20T04:47:57;97914.06;;;16.11;100.00
62712;BME280;48772;55.586;37.730;2023-07-20T04:50:23;97941.25;;;16.23;100.00
62712;BME280;48772;55.586;37.730;2023-07-20T04:52:52;97989.44;;;16.59;100.00
62712;BME280;48772;55.586;37.730;2023-07-20T04:55:20;97981.38;;;16.59;100.00
62712;BME280;48772;55.586;37.730;2023-07-20T04:57:47;97997.41;;;16.86;100.00
62712;BME280;48772;55.586;37.730;2023-07-20T05:00:17;97964.69;;;16.96;100.00
62712;BME280;48772;55.586;37.730;2023-07-20T05:02:48;97910.84;;;16.83;100.00
62712;BME280;48772;55.586;37.730;2023-07-20T05:05:18;97958.53;;;17.21;100.00
62712;BME280;48772;55.586;37.730;2023-07-20T05:07:44;97948.16;;;17.12;100.00
62712;BME280;48772;55.586;37.730;2023-07-20T05:10:11;97915.00;;;17.18;100.00
62712;BME280;48772;55.586;37.730;2023-07-20T05:12:37;97981.81;;;17.61;100.00
62712;BME280;48772;55.586;37.730;2023-07-20T05:15:04;97985.94;;;17.90;100.00
62712;BME280;48772;55.586;37.730;2023-07-20T05:17:30;97960.22;;;17.74;100.00
62712;BME280;48772;55.586;37.730;2023-07-20T05:19:57;97921.03;;;17.20;100.00
62712;BME280;48772;55.586;37.730;2023-07-20T05:22:24;97918.53;;;17.25;100.00
62712;BME280;48772;55.586;37.730;2023-07-20T05:24:50;97916.69;;;17.25;100.00
62712;BME280;48772;55.586;37.730;2023-07-20T05:27:17;97920.03;;;17.53;100.00
62712;BME280;48772;55.586;37.730;2023-07-20T05:29:44;97993.81;;;18.04;100.00
62712;BME280;48772;55.586;37.730;2023-07-20T05:32:13;97985.09;;;17.96;100.00
62712;BME280;48772;55.586;37.730;2023-07-20T05:34:41;97972.44;;;17.90;100.00
62712;BME280;48772;55.586;37.730;2023-07-20T05:37:07;97966.03;;;17.78;100.00
62712;BME280;48772;55.586;37.730;2023-07-20T05:39:33;97947.53;;;18.01;100.00
62712;BME280;48772;55.586;37.730;2023-07-20T05:41:59;97985.22;;;18.27;100.00
62712;BME280;48772;55.586;37.730;2023-07-20T05:44:25;97961.44;;;18.04;100.00
62712;BME280;48772;55.586;37.730;2023-07-20T05:46:51;97956.63;;;18.19;100.00
62712;BME280;48772;55.586;37.730;2023-07-20T05:49:18;97916.81;;;18.08;100.00
62712;BME280;48772;55.586;37.730;2023-07-20T05:51:44;97976.25;;;18.52;100.00
62712;BME280;48772;55.586;37.730;2023-07-20T05:54:12;97914.41;;;18.44;100.00
62712;BME280;48772;55.586;37.730;2023-07-20T05:56:38;97930.03;;;18.36;100.00
62712;BME280;48772;55.586;37.730;2023-07-20T05:59:04;97965.56;;;18.77;100.00
62712;BME280;48772;55.586;37.730;2023-07-20T06:01:31;97941.94;;;18.97;100.00
62712;BME280;48772;55.586;37.730;2023-07-20T06:03:57;97961.47;;;18.99;100.00
62712;BME280;48772;55.586;37.730;2023-07-20T06:06:23;97938.38;;;18.72;100.00
62712;BME280;48772;55.586;37.730;2023-07-20T06:08:50;97941.81;;;18.85;100.00
62712;BME280;48772;55.586;37.730;2023-07-20T06:11:16;97978.06;;;19.40;100.00
62712;BME280;48772;55.586;37.730;2023-07-20T06:13:42;97968.53;;;19.37;100.00
62712;BME280;48772;55.586;37.730;2023-07-20T06:16:09;97972.31;;;19.30;100.00
62712;BME280;48772;55.586;37.730;2023-07-20T06:18:35;97967.69;;;19.37;100.00
62712;BME280;48772;55.586;37.730;2023-07-20T06:21:04;97951.44;;;19.43;100.00
62712;BME280;48772;55.586;37.730;2023-07-20T06:24:12;97920.56;;;19.26;100.00
62712;BME280;48772;55.586;37.730;2023-07-20T06:26:58;97979.69;;;19.72;100.00
62712;BME280;48772;55.586;37.730;2023-07-20T06:29:57;97926.91;;;19.38;100.00
62712;BME280;48772;55.586;37.730;2023-07-20T06:32:23;97932.66;;;19.17;100.00
62712;BME280;48772;55.586;37.730;2023-07-20T06:38:53;97901.78;;;19.38;100.00
62712;BME280;48772;55.586;37.730;2023-07-20T06:41:19;97961.03;;;20.07;100.00
62712;BME280;48772;55.586;37.730;2023-07-20T06:43:46;97967.25;;;20.14;100.00
62712;BME280;48772;55.586;37.730;2023-07-20T06:46:13;97959.34;;;20.12;100.00
62712;BME280;48772;55.586;37.730;2023-07-20T06:48:39;97959.91;;;20.39;100.00
62712;BME280;48772;55.586;37.730;2023-07-20T06:51:05;97963.78;;;20.61;100.00
62712;BME280;48772;55.586;37.730;2023-07-20T06:53:31;97961.75;;;20.74;100.00
62712;BME280;48772;55.586;37.730;2023-07-20T06:55:57;97981.34;;;20.88;100.00
62712;BME280;48772;55.586;37.730;2023-07-20T06:58:23;97983.53;;;20.79;100.00
62712;BME280;48772;55.586;37.730;2023-07-20T07:00:49;97980.53;;;20.69;100.00
62712;BME280;48772;55.586;37.730;2023-07-20T07:03:15;97976.78;;;21.06;100.00
62712;BME280;48772;55.586;37.730;2023-07-20T07:05:41;97964.00;;;20.95;100.00
62712;BME280;48772;55.586;37.730;2023-07-20T07:08:07;97982.28;;;20.64;100.00
62712;BME280;48772;55.586;37.730;2023-07-20T07:10:35;97984.38;;;20.98;100.00
62712;BME280;48772;55.586;37.730;2023-07-20T07:13:01;97961.28;;;20.77;100.00
62712;BME280;48772;55.586;37.730;2023-07-20T07:15:27;97985.25;;;21.10;100.00
62712;BME280;48772;55.586;37.730;2023-07-20T07:17:54;97981.69;;;20.98;100.00
62712;BME280;48772;55.586;37.730;2023-07-20T07:20:19;97953.75;;;20.79;100.00
62712;BME280;48772;55.586;37.730;2023-07-20T07:22:45;97996.34;;;20.72;100.00
62712;BME280;48772;55.586;37.730;2023-07-20T07:25:12;97979.41;;;21.24;100.00
62712;BME280;48772;55.586;37.730;2023-07-20T07:27:38;97964.03;;;21.07;100.00
62712;BME280;48772;55.586;37.730;2023-07-20T07:30:04;97928.09;;;21.11;100.00
62712;BME280;48772;55.586;37.730;2023-07-20T07:32:31;97974.59;;;21.26;100.00
62712;BME280;48772;55.586;37.730;2023-07-20T07:34:57;97972.97;;;21.37;100.00
62712;BME280;48772;55.586;37.730;2023-07-20T07:37:26;97971.94;;;21.08;100.00
62712;BME280;48772;55.586;37.730;2023-07-20T07:39:52;97971.53;;;21.34;100.00
62712;BME280;48772;55.586;37.730;2023-07-20T07:42:18;97986.69;;;21.53;100.00
62712;BME280;48772;55.586;37.730;2023-07-20T07:44:44;97992.19;;;21.06;100.00
62712;BME280;48772;55.586;37.730;2023-07-20T07:47:10;97992.66;;;21.44;100.00
62712;BME280;48772;55.586;37.730;2023-07-20T07:49:36;97973.19;;;21.76;100.00
62712;BME280;48772;55.586;37.730;2023-07-20T07:52:02;97999.94;;;21.61;100.00
62712;BME280;48772;55.586;37.730;2023-07-20T07:54:28;97988.66;;;21.87;100.00
62712;BME280;48772;55.586;37.730;2023-07-20T07:56:55;97981.81;;;22.08;100.00
62712;BME280;48772;55.586;37.730;2023-07-20T07:59:21;97994.09;;;22.10;100.00
62712;BME280;48772;55.586;37.730;2023-07-20T08:01:48;97968.00;;;22.21;100.00
62712;BME280;48772;55.586;37.730;2023-07-20T08:04:14;97965.03;;;22.22;100.00
62712;BME280;48772;55.586;37.730;2023-07-20T08:06:40;97980.75;;;22.20;100.00
62712;BME280;48772;55.586;37.730;2023-07-20T08:09:06;97986.06;;;22.62;100.00
62712;BME280;48772;55.586;37.730;2023-07-20T08:11:32;97972.69;;;22.72;100.00
62712;BME280;48772;55.586;37.730;2023-07-20T08:14:00;97989.47;;;22.22;100.00
62712;BME280;48772;55.586;37.730;2023-07-20T08:16:26;97974.63;;;21.90;100.00
62712;BME280;48772;55.586;37.730;2023-07-20T08:18:52;98000.94;;;22.48;100.00
62712;BME280;48772;55.586;37.730;2023-07-20T08:21:18;97994.19;;;22.73;100.00
62712;BME280;48772;55.586;37.730;2023-07-20T08:23:44;98000.13;;;22.12;100.00
62712;BME280;48772;55.586;37.730;2023-07-20T08:26:10;97988.69;;;22.22;100.00
62712;BME280;48772;55.586;37.730;2023-07-20T08:28:35;97979.81;;;22.50;100.00
62712;BME280;48772;55.586;37.730;2023-07-20T08:31:01;97995.75;;;22.58;100.00
62712;BME280;48772;55.586;37.730;2023-07-20T08:33:28;98007.84;;;22.90;100.00
62712;BME280;48772;55.586;37.730;2023-07-20T08:35:58;97992.19;;;22.69;100.00
62712;BME280;48772;55.586;37.730;2023-07-20T08:38:24;98002.56;;;22.72;100.00
62712;BME280;48772;55.586;37.730;2023-07-20T08:40:51;98008.50;;;22.57;100.00
62712;BME280;48772;55.586;37.730;2023-07-20T08:43:19;97974.38;;;22.26;100.00
62712;BME280;48772;55.586;37.730;2023-07-20T08:45:46;97987.47;;;22.52;100.00
62712;BME280;48772;55.586;37.730;2023-07-20T08:48:15;97984.06;;;22.34;100.00
62712;BME280;48772;55.586;37.730;2023-07-20T08:50:41;97985.03;;;22.91;100.00
62712;BME280;48772;55.586;37.730;2023-07-20T08:53:08;97992.44;;;23.35;100.00
62712;BME280;48772;55.586;37.730;2023-07-20T08:55:36;97969.88;;;22.95;100.00
62712;BME280;48772;55.586;37.730;2023-07-20T08:58:02;97981.84;;;23.22;100.00
62712;BME280;48772;55.586;37.730;2023-07-20T09:00:30;97990.53;;;22.68;100.00
62712;BME280;48772;55.586;37.730;2023-07-20T09:02:56;97982.25;;;22.63;100.00
62712;BME280;48772;55.586;37.730;2023-07-20T09:05:24;97952.78;;;22.31;100.00
62712;BME280;48772;55.586;37.730;2023-07-20T09:07:52;97959.84;;;22.95;100.00
62712;BME280;48772;55.586;37.730;2023-07-20T09:10:23;97999.41;;;23.03;100.00
62712;BME280;48772;55.586;37.730;2023-07-20T09:12:49;98010.22;;;23.26;100.00
62712;BME280;48772;55.586;37.730;2023-07-20T09:15:16;97999.31;;;23.54;100.00
62712;BME280;48772;55.586;37.730;2023-07-20T09:17:50;98006.66;;;23.70;100.00
62712;BME280;48772;55.586;37.730;2023-07-20T09:20:17;97990.09;;;23.71;100.00
62712;BME280;48772;55.586;37.730;2023-07-20T09:22:44;98002.25;;;23.08;100.00
62712;BME280;48772;55.586;37.730;2023-07-20T09:25:17;97988.19;;;22.99;100.00
62712;BME280;48772;55.586;37.730;2023-07-20T09:27:47;97997.16;;;23.00;100.00
62712;BME280;48772;55.586;37.730;2023-07-20T09:30:14;98002.59;;;23.00;100.00
62712;BME280;48772;55.586;37.730;2023-07-20T09:32:41;97992.63;;;22.77;100.00
62712;BME280;48772;55.586;37.730;2023-07-20T09:35:16;97996.63;;;22.75;100.00
62712;BME280;48772;55.586;37.730;2023-07-20T09:38:01;98001.38;;;23.19;100.00
62712;BME280;48772;55.586;37.730;2023-07-20T09:40:27;98008.19;;;22.82;100.00
62712;BME280;48772;55.586;37.730;2023-07-20T09:42:54;98001.78;;;22.13;100.00
62712;BME280;48772;55.586;37.730;2023-07-20T09:45:33;98035.75;;;21.93;100.00
62712;BME280;48772;55.586;37.730;2023-07-20T09:48:06;97995.25;;;21.39;100.00
62712;BME280;48772;55.586;37.730;2023-07-20T09:50:33;98008.66;;;21.22;100.00
62712;BME280;48772;55.586;37.730;2023-07-20T09:53:00;98020.91;;;21.66;100.00
62712;BME280;48772;55.586;37.730;2023-07-20T09:55:29;98019.38;;;22.34;100.00
62712;BME280;48772;55.586;37.730;2023-07-20T09:57:56;97980.94;;;22.77;100.00
62712;BME280;48772;55.586;37.730;2023-07-20T10:00:22;97985.19;;;23.40;100.00
62712;BME280;48772;55.586;37.730;2023-07-20T10:02:49;97958.97;;;23.51;100.00
62712;BME280;48772;55.586;37.730;2023-07-20T10:05:18;98015.72;;;23.59;100.00
62712;BME280;48772;55.586;37.730;2023-07-20T10:07:50;98004.16;;;23.35;100.00
62712;BME280;48772;55.586;37.730;2023-07-20T10:10:18;97963.25;;;23.47;100.00
62712;BME280;48772;55.586;37.730;2023-07-20T10:12:49;97989.16;;;22.93;100.00
62712;BME280;48772;55.586;37.730;2023-07-20T10:15:20;98014.75;;;22.46;100.00
62712;BME280;48772;55.586;37.730;2023-07-20T10:20:22;97962.66;;;22.61;100.00
62712;BME280;48772;55.586;37.730;2023-07-20T10:22:53;97975.31;;;22.32;100.00
62712;BME280;48772;55.586;37.730;2023-07-20T10:25:22;97999.97;;;22.30;100.00
62712;BME280;48772;55.586;37.730;2023-07-20T10:27:49;97995.53;;;22.24;100.00
62712;BME280;48772;55.586;37.730;2023-07-20T10:30:17;98003.28;;;22.79;100.00
62712;BME280;48772;55.586;37.730;2023-07-20T10:32:44;97990.66;;;22.61;100.00
62712;BME280;48772;55.586;37.730;2023-07-20T10:35:17;98006.47;;;22.64;100.00
62712;BME280;48772;55.586;37.730;2023-07-20T10:37:52;97994.78;;;22.64;100.00
62712;BME280;48772;55.586;37.730;2023-07-20T10:40:33;97994.59;;;23.49;100.00
62712;BME280;48772;55.586;37.730;2023-07-20T10:43:01;98007.47;;;23.98;100.00
62712;BME280;48772;55.586;37.730;2023-07-20T10:45:48;98012.41;;;23.85;100.00
62712;BME280;48772;55.586;37.730;2023-07-20T10:50:43;97983.50;;;23.84;100.00
62712;BME280;48772;55.586;37.730;2023-07-20T10:53:18;98006.56;;;23.93;100.00
62712;BME280;48772;55.586;37.730;2023-07-20T10:55:44;98032.47;;;24.12;100.00
62712;BME280;48772;55.586;37.730;2023-07-20T10:58:13;98035.44;;;23.94;87.89
62712;BME280;48772;55.586;37.730;2023-07-20T11:01:03;97990.69;;;23.29;87.64
62712;BME280;48772;55.586;37.730;2023-07-20T11:03:31;98031.28;;;23.91;89.61
62712;BME280;48772;55.586;37.730;2023-07-20T11:05:57;98012.47;;;23.90;83.52
62712;BME280;48772;55.586;37.730;2023-07-20T11:08:42;98027.19;;;24.05;89.07
62712;BME280;48772;55.586;37.730;2023-07-20T11:11:27;98015.38;;;24.33;90.38
62712;BME280;48772;55.586;37.730;2023-07-20T11:13:58;98005.31;;;24.55;92.07
62712;BME280;48772;55.586;37.730;2023-07-20T11:16:43;98014.94;;;23.91;94.24
62712;BME280;48772;55.586;37.730;2023-07-20T11:19:17;98009.78;;;23.62;91.59
62712;BME280;48772;55.586;37.730;2023-07-20T11:21:46;98038.97;;;23.50;97.68
62712;BME280;48772;55.586;37.730;2023-07-20T11:24:13;97951.28;;;23.03;96.95
62712;BME280;48772;55.586;37.730;2023-07-20T11:26:40;98016.88;;;23.07;100.00
62712;BME280;48772;55.586;37.730;2023-07-20T11:29:06;98024.81;;;22.97;100.00
62712;BME280;48772;55.586;37.730;2023-07-20T11:31:40;98051.69;;;22.82;100.00
62712;BME280;48772;55.586;37.730;2023-07-20T11:34:14;98029.22;;;22.98;100.00
62712;BME280;48772;55.586;37.730;2023-07-20T11:36:46;98028.44;;;22.63;100.00
62712;BME280;48772;55.586;37.730;2023-07-20T11:39:22;97997.50;;;22.40;100.00
62712;BME280;48772;55.586;37.730;2023-07-20T11:41:57;98011.81;;;22.48;100.00
62712;BME280;48772;55.586;37.730;2023-07-20T11:44:26;98044.63;;;22.81;100.00
62712;BME280;48772;55.586;37.730;2023-07-20T11:47:10;98025.47;;;23.15;100.00
62712;BME280;48772;55.586;37.730;2023-07-20T11:49:40;98036.72;;;23.75;100.00
62712;BME280;48772;55.586;37.730;2023-07-20T11:52:09;98039.25;;;23.81;100.00
62712;BME280;48772;55.586;37.730;2023-07-20T11:54:39;98053.19;;;23.52;100.00
62712;BME280;48772;55.586;37.730;2023-07-20T11:57:06;98063.00;;;23.13;100.00
62712;BME280;48772;55.586;37.730;2023-07-20T11:59:32;98034.13;;;23.24;100.00
62712;BME280;48772;55.586;37.730;2023-07-20T12:02:01;98002.66;;;23.28;100.00
62712;BME280;48772;55.586;37.730;2023-07-20T12:04:30;98023.13;;;23.19;100.00
62712;BME280;48772;55.586;37.730;2023-07-20T12:06:57;98030.78;;;22.82;100.00
62712;BME280;48772;55.586;37.730;2023-07-20T12:09:23;98007.94;;;22.55;100.00
62712;BME280;48772;55.586;37.730;2023-07-20T12:11:50;98022.44;;;22.61;100.00
62712;BME280;48772;55.586;37.730;2023-07-20T12:14:16;98018.31;;;22.12;100.00
62712;BME280;48772;55.586;37.730;2023-07-20T12:16:52;98045.72;;;21.69;100.00
62712;BME280;48772;55.586;37.730;2023-07-20T12:19:19;98011.38;;;20.86;100.00
62712;BME280;48772;55.586;37.730;2023-07-20T12:21:45;98062.91;;;21.04;100.00
62712;BME280;48772;55.586;37.730;2023-07-20T12:24:11;98036.41;;;21.06;100.00
62712;BME280;48772;55.586;37.730;2023-07-20T12:26:37;98050.97;;;21.23;100.00
62712;BME280;48772;55.586;37.730;2023-07-20T12:29:03;98043.44;;;21.25;100.00
62712;BME280;48772;55.586;37.730;2023-07-20T12:31:30;98053.09;;;21.21;100.00
62712;BME280;48772;55.586;37.730;2023-07-20T12:33:57;98015.09;;;21.39;100.00
62712;BME280;48772;55.586;37.730;2023-07-20T12:36:25;98045.25;;;22.48;100.00
62712;BME280;48772;55.586;37.730;2023-07-20T12:38:51;98042.75;;;22.46;100.00
62712;BME280;48772;55.586;37.730;2023-07-20T12:41:17;98039.06;;;22.29;100.00
62712;BME280;48772;55.586;37.730;2023-07-20T12:43:44;97985.81;;;21.82;100.00
62712;BME280;48772;55.586;37.730;2023-07-20T12:46:12;98055.41;;;21.77;100.00
62712;BME280;48772;55.586;37.730;2023-07-20T12:48:40;98060.56;;;21.37;100.00
62712;BME280;48772;55.586;37.730;2023-07-20T12:51:09;98045.56;;;20.87;100.00
62712;BME280;48772;55.586;37.730;2023-07-20T12:53:35;98069.69;;;20.95;100.00
62712;BME280;48772;55.586;37.730;2023-07-20T12:56:02;98064.84;;;21.15;100.00
62712;BME280;48772;55.586;37.730;2023-07-20T12:58:28;98054.75;;;21.22;100.00
62712;BME280;48772;55.586;37.730;2023-07-20T13:00:55;98055.03;;;21.32;100.00
62712;BME280;48772;55.586;37.730;2023-07-20T13:03:21;98051.16;;;21.40;100.00
62712;BME280;48772;55.586;37.730;2023-07-20T13:05:47;98056.28;;;21.59;100.00
62712;BME280;48772;55.586;37.730;2023-07-20T13:08:15;98046.69;;;21.75;100.00
62712;BME280;48772;55.586;37.730;2023-07-20T13:10:41;98053.13;;;22.26;100.00
62712;BME280;48772;55.586;37.730;2023-07-20T13:13:07;98061.38;;;22.43;100.00
62712;BME280;48772;55.586;37.730;2023-07-20T13:15:42;98053.19;;;22.50;100.00